• Join FlightAware (Why Join?)
  • Login
  • US Flag 
12:10PM EDT


 

Airport Tracker/Info


-or-


 

Live Flight TrackerFlight Track Log ✈ UAL4380 ✈ 06-Sep-2013 ✈ KRDU - KEWR

Flight Track Log - Related Links

Times and Time Zones

All times are in EDT time to prevent confusion due to time zone crossing. See the UAL4380 flight status page for this flight to view local times or setup timezone preferences in your user account.

Time Position Orientation Groundspeed Altitude Reporting Facility
EDT Latitude Longitude Course Direction KTS MPH feet Rate Location/Type
10:31AM 35.8986 -78.7792 39° Northeast 164 189 1,100  Level Washington Center
10:32AM 35.9328 -78.7575 27° Northeast 185 213 2,500 1,980 Climbing Washington Center
10:33AM 35.9833 -78.7339 21° North 216 249 4,400 1,980 Climbing Washington Center
10:34AM 36.0508 -78.7108 15° North 231 266 6,500 2,280 Climbing Washington Center
10:35AM 36.1559 -78.5408 11° North  Level Estimated
10:35AM 36.1203 -78.6881 15° North 243 280 8,900  Level Washington Center
10:36AM 36.2253 -78.4789 39° Northeast  Level Estimated
10:36AM 36.1939 -78.6625 16° North 255 293 10,500  Level Washington Center
10:37AM 36.2717 -78.6397 13° North 293 337 11,100 1,140 Climbing Washington Center
10:38AM 36.3686 -78.6075 15° North 324 373 12,800 1,380 Climbing Washington Center
10:39AM 36.4653 -78.5750 15° North 340 391 14,000 1,260 Climbing Washington Center
10:40AM 36.5600 -78.5425 15° North 340 391 15,300 1,260 Climbing Washington Center
10:41AM 36.6547 -78.5097 16° North 345 397 16,500 960 Climbing Washington Center
10:42AM 36.7517 -78.4667 20° North 345 397 17,300 720 Climbing Washington Center
10:43AM 36.8389 -78.4000 31° Northeast 351 404 18,000 780 Climbing Washington Center
10:44AM 36.9239 -78.3250 35° Northeast 362 417 18,900 840 Climbing Washington Center
10:45AM 37.0089 -78.2606 31° Northeast 379 436 19,700 900 Climbing Washington Center
10:46AM 37.1108 -78.1781 33° Northeast 385 443 20,700 900 Climbing Washington Center
10:47AM 37.2022 -78.1003 34° Northeast 385 443 21,500 960 Climbing Washington Center
10:48AM 37.2933 -78.0250 33° Northeast 385 443 22,700 960 Climbing Washington Center
10:49AM 37.3867 -77.9469 34° Northeast 390 449 23,500 840 Climbing Washington Center
10:50AM 37.4800 -77.8686 34° Northeast 395 455 24,400 960 Climbing Washington Center
10:51AM 37.5756 -77.7878 34° Northeast 401 461 25,500 1,140 Climbing Washington Center
10:52AM 37.6667 -77.7064 35° Northeast 406 467 26,800 720 Climbing Washington Center
10:53AM 37.7600 -77.6197 36° Northeast 406 467 27,000 60 Climbing Washington Center
10:54AM 37.8594 -77.5275 36° Northeast 411 473 27,000  Level Washington Center
10:55AM 37.9608 -77.4353 36° Northeast 432 497 27,000  Level Washington Center
10:56AM 38.0625 -77.3456 35° Northeast 439 505 27,000  Level Washington Center
10:57AM 38.1661 -77.2475 37° Northeast 451 519 27,000  Level Washington Center
10:58AM 38.2736 -77.1469 36° Northeast 463 533 27,000  Level Washington Center
10:59AM 38.3750 -77.0536 36° Northeast 463 533 27,000  Level Washington Center
11:00AM 38.4761 -76.9628 35° Northeast 452 520 27,000  Level Washington Center
11:01AM 38.5542 -76.8872 37° Northeast 447 514 27,000  Level Washington Center
11:02AM 38.6636 -76.7856 36° Northeast 442 509 27,000  Level Washington Center
11:03AM 38.7561 -76.6858 40° Northeast 442 509 27,000  Level Washington Center
11:04AM 38.8489 -76.5806 41° Northeast 442 509 27,000  Level Washington Center
11:05AM 38.9414 -76.4750 42° Northeast 437 503 27,000  Level Washington Center
11:06AM 39.0358 -76.3639 42° Northeast 442 509 27,000  Level Washington Center
11:07AM 39.1303 -76.2497 43° Northeast 447 514 27,000  Level Washington Center
11:08AM 39.2311 -76.1408 40° Northeast 457 526 27,000  Level Washington Center
11:09AM 39.3253 -76.0317 42° Northeast 457 526 27,000  Level Washington Center
11:10AM 39.4214 -75.9167 43° Northeast 462 532 27,000 -360 Level Washington Center
11:11AM 39.5156 -75.8042 43° Northeast 462 532 26,400 -1,380 Descending Washington Center
11:12AM 39.6094 -75.6939 42° Northeast 462 532 24,400 -2,160 Descending Washington Center
11:13AM 39.7011 -75.5808 43° Northeast 457 526 22,100 -2,340 Descending Washington Center
11:14AM 39.7864 -75.4781 43° Northeast 438 504 19,700 -2,340 Descending Washington Center
11:15AM 39.8675 -75.3833 42° Northeast 409 471 17,500 -2,460 Descending Washington Center
11:16AM 39.9464 -75.2856 44° Northeast 390 449 14,800 -2,580 Descending Washington Center
11:17AM 40.0211 -75.1958 43° Northeast 375 432 12,400 -1,980 Descending Washington Center
11:18AM 40.1000 -75.1006 43° Northeast 362 417 11,000 -1,140 Descending Washington Center
11:19AM 40.1833 -74.9833 47° Northeast 280 322 9,700 -1,140 Descending New York TRACON
11:20AM 40.2500 -74.9167 37° Northeast 269 310 8,300 -900 Descending New York TRACON
11:21AM 40.2833 -74.8667 49° Northeast 262 302 8,000 -180 Descending New York TRACON
11:22AM 40.3333 -74.7833 52° Northeast 265 305 8,000 -60 Level New York TRACON
11:23AM 40.3833 -74.7167 45° Northeast 267 307 7,900 -720 Descending New York TRACON
11:24AM 40.4000 -74.6333 75° East 269 310 6,700 -1,260 Descending New York TRACON
11:25AM 40.4167 -74.5167 79° East 270 311 5,400 -900 Descending New York TRACON
11:26AM 40.4167 -74.4500 90° East 251 289 5,000 -660 Descending New York TRACON
11:27AM 40.4000 -74.3833 108° East 201 231 4,200 -960 Descending New York TRACON
11:28AM 40.4333 -74.3333 49° Northeast 190 219 3,100 -600 Descending New York TRACON
11:29AM 40.4667 -74.3000 37° Northeast 181 208 3,000 -60 Descending New York TRACON
11:30AM 40.5167 -74.2833 14° North 182 209 3,000 -240 Level New York TRACON
11:31AM 40.5667 -74.2500 27° Northeast 180 207 2,600 -660 Descending New York TRACON
11:32AM 40.6167 -74.2167 27° Northeast 178 205 1,700 -900 Descending New York TRACON
11:33AM 40.6500 -74.2000 21° North 126 145 800 -900 Descending New York TRACON